Time;durP1;ratioP1;P1;durP2;ratioP2;P2;SDS_P1;SDS_P2;PMS_P1;PMS_P2;Temp;Humidity;BMP_temperature;BMP_pressure;BME280_temperature;BME280_humidity;BME280_pressure;Samples;Min_cycle;Max_cycle;Signal;HPM_P1;HPM_P2
2022/08/25 00:00:20;;;;;;;2.30;2.10;;;17.20;7.10;;;;;;5149251;27;35879;-73
2022/08/25 00:02:46;;;;;;;3.58;2.20;;;17.10;7.40;;;;;;5149778;27;34129;-74
2022/08/25 00:05:12;;;;;;;4.40;2.30;;;17.10;7.20;;;;;;5168054;27;34055;-73
2022/08/25 00:07:38;;;;;;;4.15;2.10;;;17.00;7.30;;;;;;5168070;27;34023;-73
2022/08/25 00:10:05;;;;;;;2.55;2.33;;;16.90;7.50;;;;;;5149080;27;34303;-74
2022/08/25 00:12:31;;;;;;;7.15;2.40;;;16.90;7.60;;;;;;5149253;27;34299;-73
2022/08/25 00:14:57;;;;;;;3.67;2.17;;;16.80;7.60;;;;;;5148961;27;34268;-73
2022/08/25 00:17:23;;;;;;;5.60;2.30;;;16.80;7.70;;;;;;5131998;27;34323;-73
2022/08/25 00:19:49;;;;;;;2.65;2.45;;;16.70;7.80;;;;;;5166908;27;34293;-74
2022/08/25 00:22:15;;;;;;;3.30;2.45;;;16.70;7.80;;;;;;5183756;27;33990;-74
2022/08/25 00:24:41;;;;;;;7.20;2.60;;;16.70;7.80;;;;;;5149139;27;34306;-73
2022/08/25 00:27:08;;;;;;;3.55;2.20;;;16.70;8.00;;;;;;5166710;27;34493;-73
2022/08/25 00:29:36;;;;;;;6.35;2.63;;;16.70;8.10;;;;;;5166995;27;34224;-73
2022/08/25 00:32:04;;;;;;;2.70;2.50;;;16.60;8.00;;;;;;5167330;27;34184;-73
2022/08/25 00:34:34;;;;;;;5.68;2.42;;;16.60;8.10;;;;;;5149192;27;34245;-74
2022/08/25 00:37:03;;;;;;;3.13;2.92;;;16.60;8.80;;;;;;5128435;27;35536;-73
2022/08/25 00:39:29;;;;;;;3.55;2.63;;;16.50;8.30;;;;;;5111116;27;34836;-74
2022/08/25 00:41:56;;;;;;;2.42;2.22;;;16.50;8.20;;;;;;5145743;27;34154;-73
2022/08/25 00:44:25;;;;;;;3.10;2.17;;;16.50;8.30;;;;;;5127917;27;34197;-73
2022/08/25 00:46:55;;;;;;;2.60;2.40;;;16.40;8.50;;;;;;5127293;27;34293;-74
2022/08/25 00:49:42;;;;;;;4.18;2.30;;;16.40;8.60;;;;;;5127708;27;35048;-73
2022/08/25 00:52:20;;;;;;;2.30;2.10;;;16.40;9.90;;;;;;5134196;27;34146;-74
2022/08/25 00:54:52;;;;;;;3.10;2.60;;;16.40;9.10;;;;;;5148340;27;34168;-73
2022/08/25 00:57:25;;;;;;;3.03;2.70;;;16.30;9.60;;;;;;5148764;27;34376;-73
2022/08/25 00:59:51;;;;;;;2.67;2.47;;;16.30;9.50;;;;;;5129632;27;35655;-73
2022/08/25 01:02:17;;;;;;;4.63;2.63;;;16.20;8.70;;;;;;5148416;27;34195;-74
2022/08/25 01:04:45;;;;;;;5.53;2.45;;;16.20;8.70;;;;;;5166938;27;34286;-73
2022/08/25 01:07:13;;;;;;;3.08;2.60;;;16.20;8.90;;;;;;5148051;27;34312;-74
2022/08/25 01:09:40;;;;;;;2.42;2.22;;;16.10;9.00;;;;;;5148249;27;35618;-73
2022/08/25 01:12:07;;;;;;;4.63;2.70;;;16.10;9.00;;;;;;5147498;27;34271;-73
2022/08/25 01:14:35;;;;;;;3.35;2.70;;;16.00;9.00;;;;;;5148625;27;34197;-73
2022/08/25 01:17:01;;;;;;;2.78;2.58;;;16.00;9.30;;;;;;5147759;27;34424;-74
2022/08/25 01:19:29;;;;;;;2.85;2.55;;;16.00;9.40;;;;;;5166630;27;34883;-74
2022/08/25 01:21:55;;;;;;;2.85;2.40;;;15.90;9.50;;;;;;5147942;27;34077;-73
2022/08/25 01:24:49;;;;;;;4.07;2.58;;;15.90;9.40;;;;;;5147770;27;34164;-73
2022/08/25 01:27:15;;;;;;;2.65;2.45;;;15.90;12.20;;;;;;5144305;27;34044;-74
2022/08/25 01:29:41;;;;;;;3.05;2.17;;;15.90;9.60;;;;;;5143937;27;35488;-73
2022/08/25 01:32:12;;;;;;;3.47;2.65;;;15.80;9.60;;;;;;5147120;27;34192;-73
2022/08/25 01:34:40;;;;;;;2.63;2.42;;;15.80;10.00;;;;;;5148346;27;34257;-73
2022/08/25 01:37:08;;;;;;;3.42;2.60;;;15.80;10.20;;;;;;5125660;27;34364;-73
2022/08/25 01:39:35;;;;;;;4.03;2.75;;;15.80;9.90;;;;;;5145172;27;34715;-73
2022/08/25 01:42:27;;;;;;;8.13;2.97;;;15.70;9.90;;;;;;5144841;27;34410;-73
2022/08/25 01:44:53;;;;;;;11.38;2.88;;;15.70;12.50;;;;;;5137852;27;34093;-74
2022/08/25 01:47:19;;;;;;;5.90;2.70;;;15.70;10.20;;;;;;5133205;27;34193;-73
2022/08/25 01:49:46;;;;;;;5.65;2.45;;;15.60;10.20;;;;;;5114206;27;35635;-73
2022/08/25 01:52:34;;;;;;;2.90;2.58;;;15.60;10.30;;;;;;5137663;27;34304;-73
2022/08/25 01:54:59;;;;;;;3.15;2.47;;;15.60;11.90;;;;;;5165951;27;34133;-73
2022/08/25 01:57:30;;;;;;;3.15;2.42;;;15.50;10.40;;;;;;5148041;27;34067;-72
2022/08/25 01:59:56;;;;;;;4.20;2.38;;;15.50;11.10;;;;;;5165433;27;34752;-73
2022/08/25 02:02:22;;;;;;;3.63;2.90;;;15.40;10.50;;;;;;5147408;27;34351;-73
2022/08/25 02:04:48;;;;;;;2.50;2.40;;;15.40;10.50;;;;;;5165992;27;34146;-73
2022/08/25 02:07:14;;;;;;;3.25;2.95;;;15.40;10.60;;;;;;5113278;27;34124;-73
2022/08/25 02:09:40;;;;;;;2.70;2.50;;;15.40;10.80;;;;;;5146978;27;36662;-73
2022/08/25 02:12:08;;;;;;;3.88;2.33;;;15.30;10.60;;;;;;5146848;27;34443;-73
2022/08/25 02:14:35;;;;;;;5.13;3.08;;;15.30;10.80;;;;;;5147844;27;34528;-73
2022/08/25 02:17:02;;;;;;;3.95;2.40;;;15.30;10.90;;;;;;5146243;27;34191;-73
2022/08/25 02:19:30;;;;;;;7.43;2.47;;;15.30;11.00;;;;;;5146912;27;35562;-73
2022/08/25 02:21:57;;;;;;;3.25;2.60;;;15.20;10.90;;;;;;5146875;27;34180;-73
2022/08/25 02:24:23;;;;;;;2.58;2.30;;;15.20;11.00;;;;;;5147211;27;34188;-73
2022/08/25 02:26:49;;;;;;;3.95;2.60;;;15.20;11.00;;;;;;5147195;27;34082;-73
2022/08/25 02:29:15;;;;;;;2.63;2.40;;;15.10;11.20;;;;;;5146687;27;36876;-73
2022/08/25 02:31:42;;;;;;;3.13;2.30;;;15.00;11.20;;;;;;5165506;27;34171;-73
2022/08/25 02:34:09;;;;;;;3.22;2.70;;;15.10;11.30;;;;;;5146771;27;34267;-74
2022/08/25 02:36:37;;;;;;;3.10;2.80;;;15.00;11.20;;;;;;5165630;27;34190;-73
2022/08/25 02:39:05;;;;;;;3.10;2.67;;;15.00;11.40;;;;;;5165606;27;34242;-73
2022/08/25 02:41:32;;;;;;;4.38;2.97;;;14.90;11.70;;;;;;5129479;27;34254;-73
2022/08/25 02:44:00;;;;;;;3.08;2.78;;;14.90;11.70;;;;;;5165584;27;34245;-73
2022/08/25 02:46:26;;;;;;;3.38;2.40;;;14.90;11.90;;;;;;5165528;27;34022;-74
2022/08/25 02:48:52;;;;;;;3.75;2.85;;;14.90;11.90;;;;;;5165027;27;34582;-73
2022/08/25 02:51:20;;;;;;;4.40;2.85;;;14.80;11.90;;;;;;5169101;27;34367;-73
2022/08/25 02:53:46;;;;;;;3.90;2.85;;;14.80;11.80;;;;;;5150247;27;34370;-73
2022/08/25 02:56:14;;;;;;;3.83;3.40;;;14.80;12.10;;;;;;5169068;27;34125;-73
2022/08/25 02:58:41;;;;;;;5.30;3.15;;;14.80;12.20;;;;;;5132792;27;36649;-73
2022/08/25 03:01:10;;;;;;;2.75;2.55;;;14.80;12.40;;;;;;5146070;27;34258;-73
2022/08/25 03:03:39;;;;;;;4.45;2.90;;;14.70;12.40;;;;;;5156965;27;34180;-73
2022/08/25 03:06:07;;;;;;;4.03;2.80;;;14.70;12.50;;;;;;5146566;27;34574;-73
2022/08/25 03:08:34;;;;;;;2.70;2.50;;;14.70;12.60;;;;;;5129305;27;35253;-73
2022/08/25 03:11:01;;;;;;;2.70;2.50;;;14.70;12.60;;;;;;5128899;27;34394;-73
2022/08/25 03:13:26;;;;;;;4.32;2.78;;;14.70;12.60;;;;;;5129027;27;34233;-73
2022/08/25 03:15:53;;;;;;;4.15;2.70;;;14.60;12.40;;;;;;5147574;27;34030;-72
2022/08/25 03:18:19;;;;;;;4.30;2.85;;;14.60;12.50;;;;;;5147572;27;34333;-73
2022/08/25 03:20:45;;;;;;;5.80;3.03;;;14.60;12.50;;;;;;5129028;27;34062;-73
2022/08/25 03:23:11;;;;;;;2.72;2.45;;;14.60;12.60;;;;;;5139447;27;34172;-73
2022/08/25 03:28:21;;;;;;;3.13;2.67;;;14.60;12.90;;;;;;5166713;27;34665;-73
2022/08/25 03:30:47;;;;;;;3.13;2.80;;;14.60;12.70;;;;;;5132667;27;34113;-74
2022/08/25 03:33:13;;;;;;;3.80;2.80;;;14.50;12.70;;;;;;5115476;27;34335;-73
2022/08/25 03:35:39;;;;;;;2.53;2.33;;;14.50;12.70;;;;;;5150010;27;34366;-74
2022/08/25 03:38:06;;;;;;;3.00;2.70;;;14.50;12.90;;;;;;5167742;27;35043;-73
2022/08/25 03:40:32;;;;;;;3.25;2.80;;;14.50;12.90;;;;;;5132217;27;34133;-73
2022/08/25 03:42:58;;;;;;;4.15;2.95;;;14.40;13.00;;;;;;5168204;27;34524;-73
2022/08/25 03:45:24;;;;;;;3.75;2.80;;;14.40;13.10;;;;;;5168026;27;34148;-73
2022/08/25 03:47:52;;;;;;;6.75;2.90;;;14.40;13.00;;;;;;5167462;27;34597;-73
2022/08/25 03:50:21;;;;;;;4.25;2.92;;;14.30;13.10;;;;;;5167829;27;34142;-74
2022/08/25 03:52:55;;;;;;;3.10;2.80;;;14.30;13.40;;;;;;5145299;27;34159;-73
2022/08/25 03:55:24;;;;;;;4.00;3.08;;;14.30;14.30;;;;;;5131806;27;34290;-73
2022/08/25 03:57:51;;;;;;;3.10;2.80;;;14.30;13.30;;;;;;5146591;27;34298;-73
2022/08/25 04:00:18;;;;;;;2.95;2.75;;;14.30;13.30;;;;;;5137673;27;34096;-73
2022/08/25 04:02:44;;;;;;;3.65;3.05;;;14.30;13.30;;;;;;5145086;27;34109;-73
2022/08/25 04:05:10;;;;;;;3.22;2.97;;;14.20;13.10;;;;;;5145669;27;34264;-73
2022/08/25 04:07:37;;;;;;;7.40;3.13;;;14.20;13.30;;;;;;5144920;27;35925;-73
2022/08/25 04:10:08;;;;;;;7.10;3.10;;;14.20;13.20;;;;;;5128261;27;34136;-73
2022/08/25 04:12:36;;;;;;;6.18;3.03;;;14.10;14.20;;;;;;5146809;27;34054;-73
2022/08/25 04:15:04;;;;;;;3.08;2.78;;;14.10;13.50;;;;;;5145134;27;34425;-73
2022/08/25 04:17:30;;;;;;;5.43;3.33;;;14.10;13.70;;;;;;5128188;27;36678;-73
2022/08/25 04:19:57;;;;;;;4.00;2.83;;;14.10;13.70;;;;;;5144897;27;34053;-73
2022/08/25 04:22:23;;;;;;;3.83;3.45;;;14.10;13.70;;;;;;5146632;27;34191;-73
2022/08/25 04:24:49;;;;;;;4.18;3.40;;;14.10;13.70;;;;;;5128195;27;34461;-72
2022/08/25 04:27:15;;;;;;;4.53;3.15;;;14.00;13.70;;;;;;5145041;27;35563;-72
2022/08/25 04:29:41;;;;;;;3.40;3.10;;;14.00;13.80;;;;;;5146464;27;34291;-73
2022/08/25 04:32:06;;;;;;;3.50;3.10;;;14.00;13.90;;;;;;5141915;27;34122;-73
2022/08/25 04:34:33;;;;;;;3.38;3.15;;;14.00;13.90;;;;;;5116398;27;34146;-73
2022/08/25 04:37:01;;;;;;;3.78;3.00;;;14.00;14.10;;;;;;5141412;27;35837;-74
2022/08/25 04:39:27;;;;;;;3.42;3.13;;;14.00;14.30;;;;;;5145007;27;34250;-73
2022/08/25 04:41:54;;;;;;;3.25;2.95;;;13.90;14.20;;;;;;5144931;27;34085;-73
2022/08/25 04:44:20;;;;;;;4.18;3.45;;;13.90;14.30;;;;;;5128179;27;34360;-74
2022/08/25 04:46:46;;;;;;;3.42;3.13;;;13.90;14.30;;;;;;5145872;27;34163;-73
2022/08/25 04:49:12;;;;;;;4.32;3.03;;;13.90;14.20;;;;;;5144446;27;34182;-74
2022/08/25 04:51:40;;;;;;;4.40;3.22;;;13.90;14.30;;;;;;5131948;27;34516;-73
2022/08/25 04:54:10;;;;;;;3.47;3.17;;;13.90;14.50;;;;;;5127192;27;34058;-73
2022/08/25 04:56:39;;;;;;;3.50;3.20;;;13.90;14.70;;;;;;5127264;27;36457;-73
2022/08/25 04:59:09;;;;;;;5.10;3.17;;;13.90;14.80;;;;;;5164541;27;34302;-73
2022/08/25 05:01:36;;;;;;;3.88;3.58;;;13.90;14.70;;;;;;5143649;27;34101;-74
2022/08/25 05:04:05;;;;;;;4.55;3.63;;;13.90;14.40;;;;;;5138150;27;34581;-73
2022/08/25 05:06:31;;;;;;;4.32;3.55;;;13.90;14.50;;;;;;5109216;27;35389;-73
2022/08/25 05:08:58;;;;;;;4.05;3.42;;;13.90;14.50;;;;;;5156106;27;34264;-73
2022/08/25 05:11:24;;;;;;;4.30;3.05;;;13.90;14.50;;;;;;5150829;27;34247;-73
2022/08/25 05:13:53;;;;;;;7.28;3.88;;;13.90;14.60;;;;;;5107656;27;34540;-73
2022/08/25 05:16:21;;;;;;;7.45;3.33;;;14.00;14.80;;;;;;5136217;27;36510;-73
2022/08/25 05:18:47;;;;;;;3.75;3.35;;;14.00;14.90;;;;;;5137810;27;34337;-74
2022/08/25 05:21:17;;;;;;;4.00;3.42;;;14.00;14.70;;;;;;5127163;27;34332;-73
2022/08/25 05:23:45;;;;;;;3.50;3.20;;;14.00;15.10;;;;;;5139442;27;34249;-74
2022/08/25 05:26:16;;;;;;;4.35;3.63;;;14.00;14.70;;;;;;5137993;27;34267;-73
2022/08/25 05:28:42;;;;;;;4.28;3.25;;;14.10;15.10;;;;;;5109959;27;34413;-73
2022/08/25 05:31:11;;;;;;;3.83;3.38;;;14.10;14.90;;;;;;5156904;27;34366;-73
2022/08/25 05:33:39;;;;;;;4.45;3.13;;;14.10;15.10;;;;;;5157339;27;34238;-73
2022/08/25 05:36:06;;;;;;;3.88;3.47;;;14.10;15.00;;;;;;5121411;27;35717;-73
2022/08/25 05:38:32;;;;;;;4.72;3.55;;;14.20;15.00;;;;;;5129483;27;34330;-72
2022/08/25 05:41:01;;;;;;;5.30;3.78;;;14.20;14.90;;;;;;5137236;27;34094;-73
2022/08/25 05:43:47;;;;;;;7.18;4.85;;;14.30;15.10;;;;;;5136903;27;34486;-73
2022/08/25 05:46:14;;;;;;;9.45;4.38;;;14.30;18.10;;;;;;5150565;27;34349;-73
2022/08/25 05:48:41;;;;;;;5.60;3.75;;;14.30;15.10;;;;;;5128501;27;34538;-73
2022/08/25 05:51:09;;;;;;;4.57;3.55;;;14.40;15.20;;;;;;5126336;27;34464;-74
2022/08/25 05:53:36;;;;;;;4.47;3.97;;;14.40;15.30;;;;;;5131596;27;34223;-74
2022/08/25 05:56:03;;;;;;;12.18;4.20;;;14.50;15.30;;;;;;5165188;27;34115;-74
2022/08/25 05:58:30;;;;;;;6.70;4.22;;;14.50;15.30;;;;;;5147421;27;34043;-73
2022/08/25 06:02:39;;;;;;;4.00;3.60;;;14.60;15.30;;;;;;5147117;27;34156;-73
2022/08/25 06:03:44;;;;;;;4.90;3.92;;;14.70;15.40;;;;;;5136346;27;34266;-74
2022/08/25 06:06:10;;;;;;;6.78;4.10;;;14.80;15.20;;;;;;5147113;27;35497;-73
2022/08/25 06:08:36;;;;;;;5.30;4.07;;;14.80;15.10;;;;;;5166044;27;34020;-73
2022/08/25 06:11:01;;;;;;;5.18;4.57;;;14.90;15.30;;;;;;5146847;27;34203;-74
2022/08/25 06:13:27;;;;;;;4.90;4.38;;;15.20;15.40;;;;;;5147203;27;34005;-73
2022/08/25 06:15:57;;;;;;;4.65;4.18;;;15.70;15.00;;;;;;5147266;27;35193;-74
2022/08/25 06:18:24;;;;;;;4.68;4.28;;;16.60;14.50;;;;;;5130103;27;34130;-76
2022/08/25 06:20:50;;;;;;;5.38;4.22;;;17.60;12.40;;;;;;5147048;27;34360;-74
2022/08/25 06:23:17;;;;;;;4.85;4.15;;;18.60;10.90;;;;;;5134933;27;34033;-74
2022/08/25 06:25:49;;;;;;;3.90;3.50;;;19.60;9.40;;;;;;5164259;27;34136;-74
2022/08/25 06:28:15;;;;;;;3.85;3.55;;;20.70;8.60;;;;;;5116606;27;34258;-74
2022/08/25 06:30:41;;;;;;;4.35;3.45;;;21.50;6.90;;;;;;5150534;27;34217;-74
2022/08/25 06:33:07;;;;;;;3.33;3.03;;;22.40;5.80;;;;;;5160297;27;34336;-74
2022/08/25 06:35:32;;;;;;;3.95;2.58;;;23.00;4.80;;;;;;5150179;27;36651;-74
2022/08/25 06:37:59;;;;;;;5.88;3.00;;;23.60;4.00;;;;;;5151463;27;34089;-74
2022/08/25 06:40:25;;;;;;;3.20;2.92;;;24.00;3.20;;;;;;5133802;27;34369;-74
2022/08/25 06:42:51;;;;;;;3.28;2.97;;;24.50;2.80;;;;;;5150454;27;34372;-74
2022/08/25 06:45:17;;;;;;;3.80;2.90;;;24.90;2.40;;;;;;5150120;27;36255;-75
2022/08/25 06:47:44;;;;;;;2.85;2.65;;;25.50;1.80;;;;;;5133358;27;34268;-74
2022/08/25 06:50:10;;;;;;;3.90;2.90;;;26.00;1.40;;;;;;5150723;27;34246;-74
2022/08/25 06:52:36;;;;;;;3.78;2.70;;;26.40;1.10;;;;;;5146449;27;34185;-74
2022/08/25 06:55:02;;;;;;;3.80;2.80;;;26.70;1.00;;;;;;5147370;27;34433;-75
2022/08/25 06:57:28;;;;;;;3.30;2.75;;;27.00;1.00;;;;;;5148178;27;34185;-75
2022/08/25 06:59:54;;;;;;;8.73;3.10;;;27.10;1.00;;;;;;5146550;27;34251;-74
2022/08/25 07:02:20;;;;;;;5.60;2.55;;;27.20;1.00;;;;;;5148302;27;34245;-74
2022/08/25 07:04:47;;;;;;;4.55;2.42;;;27.20;1.00;;;;;;5147712;27;35010;-74
2022/08/25 07:07:14;;;;;;;7.50;2.88;;;27.30;1.00;;;;;;5132398;27;34304;-74
2022/08/25 07:09:39;;;;;;;3.58;2.67;;;27.40;1.00;;;;;;5140569;27;34173;-74
2022/08/25 07:12:06;;;;;;;3.80;2.40;;;27.30;1.00;;;;;;5126184;27;34027;-74
2022/08/25 07:14:32;;;;;;;4.53;2.63;;;27.20;1.00;;;;;;5130758;27;34274;-74
2022/08/25 07:16:58;;;;;;;8.75;2.67;;;27.10;1.00;;;;;;5121715;27;34606;-74
2022/08/25 07:19:24;;;;;;;14.27;2.95;;;27.00;1.00;;;;;;5116767;27;34237;-75
2022/08/25 07:22:09;;;;;;;5.95;2.80;;;26.80;1.00;;;;;;5102646;27;34237;-74
2022/08/25 07:24:35;;;;;;;9.02;2.75;;;26.70;1.00;;;;;;5145984;27;35863;-74
2022/08/25 07:27:01;;;;;;;5.07;2.75;;;26.40;1.20;;;;;;5145756;27;34195;-74
2022/08/25 07:29:28;;;;;;;7.35;2.45;;;26.30;1.40;;;;;;5146878;27;34386;-74
2022/08/25 07:31:54;;;;;;;7.70;2.63;;;26.20;1.30;;;;;;5146240;27;34476;-75
2022/08/25 07:37:03;;;;;;;4.95;2.30;;;26.00;1.60;;;;;;5136647;27;34110;-74
2022/08/25 07:39:30;;;;;;;7.38;2.20;;;25.80;1.00;;;;;;5119924;27;34284;-75
2022/08/25 07:41:56;;;;;;;4.82;2.70;;;25.60;1.30;;;;;;5146129;27;34076;-75
2022/08/25 07:44:24;;;;;;;10.02;2.35;;;25.60;1.30;;;;;;5126698;27;35635;-74
2022/08/25 07:46:51;;;;;;;5.88;2.53;;;25.50;1.00;;;;;;5146016;27;34058;-73
2022/08/25 07:49:19;;;;;;;8.02;2.30;;;25.50;1.10;;;;;;5143041;27;34260;-74
2022/08/25 07:51:46;;;;;;;9.15;2.80;;;25.60;1.20;;;;;;5129366;27;34311;-75
2022/08/25 07:54:12;;;;;;;7.82;2.40;;;25.70;1.10;;;;;;5139529;27;35829;-75
2022/08/25 07:56:40;;;;;;;5.63;2.85;;;25.70;1.00;;;;;;5148740;27;34217;-75
2022/08/25 07:59:07;;;;;;;6.18;2.13;;;25.80;1.00;;;;;;5149026;27;34403;-74
2022/08/25 08:01:33;;;;;;;3.30;2.38;;;26.00;1.00;;;;;;5167459;27;34300;-74
2022/08/25 08:03:58;;;;;;;5.53;2.70;;;26.10;1.00;;;;;;5167015;27;34300;-74
2022/08/25 08:06:25;;;;;;;6.80;2.85;;;26.30;1.00;;;;;;5132021;27;34117;-75
2022/08/25 08:08:54;;;;;;;2.40;2.13;;;26.50;1.00;;;;;;5139242;27;34513;-75
2022/08/25 08:11:25;;;;;;;7.28;2.35;;;26.70;1.00;;;;;;5139632;27;34532;-75
2022/08/25 08:13:53;;;;;;;5.70;2.15;;;26.90;1.00;;;;;;5151670;27;34009;-74
2022/08/25 08:16:21;;;;;;;8.50;2.33;;;27.20;1.00;;;;;;5149212;27;34214;-75
2022/08/25 08:18:48;;;;;;;6.90;2.20;;;27.50;1.00;;;;;;5140564;27;34404;-75
2022/08/25 08:21:17;;;;;;;6.43;2.00;;;27.80;1.00;;;;;;5159103;27;34082;-75
2022/08/25 08:23:43;;;;;;;2.92;2.00;;;28.10;1.00;;;;;;5148837;27;35453;-76
2022/08/25 08:26:09;;;;;;;6.50;2.22;;;28.50;1.00;;;;;;5148626;27;34187;-75
2022/08/25 08:28:35;;;;;;;5.95;1.90;;;28.80;1.00;;;;;;5160420;27;33994;-75
2022/08/25 08:31:01;;;;;;;4.47;2.22;;;29.00;1.00;;;;;;5135187;27;34318;-75
2022/08/25 08:33:28;;;;;;;2.65;1.67;;;29.20;1.00;;;;;;5141477;27;35752;-75
2022/08/25 08:36:00;;;;;;;2.83;1.90;;;29.50;1.00;;;;;;5147846;27;34126;-74
2022/08/25 08:38:26;;;;;;;1.95;1.58;;;29.90;1.00;;;;;;5166614;27;34041;-74
2022/08/25 08:44:15;;;;;;;2.00;1.90;;;30.40;1.00;;;;;;5162581;27;34825;-74
2022/08/25 08:47:09;;;;;;;2.33;1.98;;;30.70;1.00;;;;;;5131397;27;34260;-76
2022/08/25 08:49:59;;;;;;;1.60;1.50;;;30.80;1.00;;;;;;5146404;27;35787;-74
2022/08/25 08:52:39;;;;;;;3.00;1.60;;;30.80;1.00;;;;;;5157411;27;34134;-75
2022/08/25 08:55:14;;;;;;;2.35;1.65;;;31.00;1.00;;;;;;5127080;27;37167;-75
2022/08/25 08:57:46;;;;;;;2.03;1.92;;;31.20;1.00;;;;;;5155489;27;34374;-75
2022/08/25 09:00:13;;;;;;;5.03;1.70;;;31.30;1.00;;;;;;5136160;27;34454;-76
2022/08/25 09:03:00;;;;;;;2.72;1.80;;;31.40;1.00;;;;;;5146284;27;34184;-75
2022/08/25 09:05:28;;;;;;;2.08;1.52;;;31.60;1.00;;;;;;5127693;27;34401;-75
2022/08/25 09:08:03;;;;;;;3.78;1.70;;;31.80;1.00;;;;;;5142325;27;34178;-75
2022/08/25 09:10:59;;;;;;;1.77;1.67;;;31.80;1.00;;;;;;5115812;27;34221;-75
2022/08/25 09:13:55;;;;;;;2.20;1.90;;;31.80;1.00;;;;;;5122176;27;34114;-76
2022/08/25 09:19:43;;;;;;;2.17;1.77;;;32.00;1.00;;;;;;5134794;27;34073;-75
2022/08/25 09:22:27;;;;;;;2.45;1.88;;;32.00;1.00;;;;;;5126114;27;34209;-75
2022/08/25 09:25:10;;;;;;;2.50;1.85;;;32.20;1.00;;;;;;5134847;27;34458;-75
2022/08/25 09:28:01;;;;;;;1.98;1.77;;;32.30;1.00;;;;;;5130511;27;35515;-75
2022/08/25 09:30:38;;;;;;;2.00;1.90;;;32.40;1.00;;;;;;5127134;27;34103;-76
2022/08/25 09:33:04;;;;;;;1.90;1.70;;;32.50;1.00;;;;;;5146184;27;34260;-76
2022/08/25 09:35:33;;;;;;;3.83;2.05;;;32.60;1.00;;;;;;5166445;27;34569;-76
2022/08/25 09:38:05;;;;;;;2.78;2.13;;;32.70;1.00;;;;;;5144420;27;36484;-75
2022/08/25 09:40:35;;;;;;;2.75;1.98;;;33.00;1.00;;;;;;5135942;27;34477;-77
2022/08/25 09:43:04;;;;;;;2.97;2.03;;;33.00;1.00;;;;;;5166113;27;34425;-75
2022/08/25 09:45:38;;;;;;;1.63;1.52;;;33.00;1.00;;;;;;5141243;27;34565;-75
2022/08/25 09:48:22;;;;;;;7.30;2.35;;;33.00;1.00;;;;;;5144658;27;35910;-76
2022/08/25 09:50:50;;;;;;;5.38;1.92;;;33.10;1.00;;;;;;5165919;27;34090;-76
2022/08/25 09:53:18;;;;;;;5.22;1.90;;;33.30;1.00;;;;;;5103151;27;34332;-76
2022/08/25 09:55:46;;;;;;;1.75;1.65;;;33.40;1.00;;;;;;5140597;27;34219;-76
2022/08/25 09:58:19;;;;;;;2.10;1.90;;;33.50;1.00;;;;;;5124783;27;35773;-77
2022/08/25 10:01:12;;;;;;;2.75;1.83;;;33.70;1.00;;;;;;5148761;27;34206;-76
2022/08/25 10:03:54;;;;;;;1.88;1.70;;;33.80;1.00;;;;;;5126821;27;34141;-76
2022/08/25 10:06:21;;;;;;;1.88;1.77;;;33.80;1.00;;;;;;5128969;27;34303;-76
2022/08/25 10:08:57;;;;;;;2.17;2.03;;;33.80;1.00;;;;;;5126301;27;35279;-76
2022/08/25 10:11:40;;;;;;;2.10;1.65;;;34.00;1.00;;;;;;5140523;27;34258;-76
2022/08/25 10:14:17;;;;;;;2.42;1.90;;;34.20;1.00;;;;;;5136896;27;34298;-77
2022/08/25 10:16:45;;;;;;;2.05;1.85;;;34.30;1.00;;;;;;5123797;27;34207;-76
2022/08/25 10:19:22;;;;;;;1.85;1.75;;;34.40;1.00;;;;;;5124410;27;35773;-77
2022/08/25 10:22:20;;;;;;;3.30;1.85;;;34.40;1.00;;;;;;5140924;27;34087;-76
2022/08/25 10:24:47;;;;;;;1.67;1.48;;;34.50;1.00;;;;;;5136511;27;35856;-76
2022/08/25 10:27:49;;;;;;;2.15;1.48;;;34.60;1.00;;;;;;5138308;27;34556;-76
2022/08/25 10:30:43;;;;;;;1.63;1.52;;;34.70;1.00;;;;;;5124466;27;36055;-76
2022/08/25 10:33:22;;;;;;;1.80;1.70;;;34.90;1.00;;;;;;5130736;27;34277;-76
2022/08/25 10:36:01;;;;;;;1.70;1.60;;;34.90;1.00;;;;;;5135886;27;34304;-77
2022/08/25 10:38:44;;;;;;;2.00;1.90;;;35.10;1.00;;;;;;5127228;27;34283;-77
2022/08/25 10:41:31;;;;;;;2.10;1.90;;;35.20;1.00;;;;;;5121694;27;35713;-76
2022/08/25 10:47:29;;;;;;;2.95;2.00;;;35.40;1.00;;;;;;5138625;27;34214;-77
2022/08/25 10:50:12;;;;;;;6.32;2.00;;;35.40;1.00;;;;;;5143512;27;34348;-78
2022/08/25 10:53:01;;;;;;;1.85;1.75;;;35.40;1.00;;;;;;5111092;27;35823;-76
2022/08/25 10:55:52;;;;;;;1.98;1.77;;;35.50;1.00;;;;;;5144476;27;34282;-77
2022/08/25 10:58:39;;;;;;;4.18;1.75;;;35.50;1.00;;;;;;5129338;27;34332;-80
2022/08/25 11:01:26;;;;;;;2.53;1.90;;;35.50;1.00;;;;;;5138345;27;34156;-77
2022/08/25 11:04:27;;;;;;;1.95;1.80;;;35.60;1.00;;;;;;5133039;27;34926;-76
2022/08/25 11:06:59;;;;;;;2.08;1.75;;;35.50;1.00;;;;;;5123522;27;34182;-76
2022/08/25 11:09:33;;;;;;;3.00;1.67;;;35.40;1.00;;;;;;5142456;27;34387;-75
2022/08/25 11:12:06;;;;;;;2.67;1.50;;;35.40;1.00;;;;;;5125478;27;34488;-76
2022/08/25 11:14:39;;;;;;;1.70;1.60;;;35.40;1.00;;;;;;5146354;27;34265;-75
2022/08/25 11:17:24;;;;;;;1.75;1.50;;;35.50;1.00;;;;;;5123646;27;34328;-75
2022/08/25 11:19:56;;;;;;;6.68;1.80;;;35.60;1.00;;;;;;5105352;27;34221;-76
2022/08/25 11:22:29;;;;;;;1.80;1.70;;;35.70;1.00;;;;;;5143199;27;34428;-74
2022/08/25 11:25:26;;;;;;;1.92;1.80;;;35.60;1.00;;;;;;5115477;27;35959;-75
2022/08/25 11:28:14;;;;;;;2.00;1.80;;;35.70;1.00;;;;;;5125779;27;34173;-76
2022/08/25 11:30:41;;;;;;;3.55;1.60;;;35.70;1.00;;;;;;5146142;27;34147;-76
2022/08/25 11:33:16;;;;;;;3.55;1.50;;;35.80;1.00;;;;;;5142274;27;34237;-79
2022/08/25 11:35:50;;;;;;;2.15;1.45;;;36.00;1.00;;;;;;5122781;27;35634;-77
2022/08/25 11:38:46;;;;;;;3.00;1.60;;;36.20;1.00;;;;;;5131478;27;34176;-75
2022/08/25 11:41:27;;;;;;;1.83;1.65;;;36.00;1.00;;;;;;5143969;27;34309;-75
2022/08/25 11:44:19;;;;;;;2.08;1.88;;;35.90;1.00;;;;;;5137847;27;34588;-74
2022/08/25 11:47:20;;;;;;;9.85;2.28;;;36.00;1.00;;;;;;5140772;27;35862;-75
2022/08/25 11:50:01;;;;;;;2.72;1.55;;;35.90;1.00;;;;;;5141781;27;34220;-76
2022/08/25 11:52:45;;;;;;;3.17;1.60;;;35.90;1.00;;;;;;5141816;27;34406;-75
2022/08/25 11:55:20;;;;;;;2.65;1.60;;;36.00;1.00;;;;;;5141528;27;34464;-76
2022/08/25 11:57:48;;;;;;;4.07;1.55;;;36.20;1.00;;;;;;5167986;27;34338;-75
2022/08/25 12:00:45;;;;;;;2.03;1.70;;;36.30;1.00;;;;;;5148985;27;34147;-75
2022/08/25 12:03:45;;;;;;;1.77;1.42;;;36.50;1.00;;;;;;5144528;27;34828;-75
2022/08/25 12:06:29;;;;;;;1.67;1.58;;;36.50;1.00;;;;;;5163619;27;34270;-75
2022/08/25 12:09:16;;;;;;;3.65;1.58;;;36.50;1.00;;;;;;5134941;27;34467;-76
2022/08/25 12:11:50;;;;;;;5.88;1.58;;;36.50;1.00;;;;;;5147149;27;34290;-75
2022/08/25 12:14:40;;;;;;;1.70;1.60;;;36.50;1.00;;;;;;5143475;27;34243;-75
2022/08/25 12:17:23;;;;;;;2.30;2.10;;;36.50;1.00;;;;;;5127621;27;34536;-75
2022/08/25 12:19:55;;;;;;;3.28;1.60;;;36.50;1.00;;;;;;5140426;27;35772;-75
2022/08/25 12:22:43;;;;;;;3.15;1.65;;;36.50;1.00;;;;;;5127109;27;34427;-75
2022/08/25 12:25:30;;;;;;;3.15;1.70;;;36.30;1.00;;;;;;5134741;27;34399;-75
2022/08/25 12:28:08;;;;;;;1.80;1.70;;;36.30;1.00;;;;;;5144978;27;34625;-75
2022/08/25 12:30:53;;;;;;;1.63;1.50;;;36.50;1.00;;;;;;5137058;27;34403;-75
2022/08/25 12:33:38;;;;;;;1.50;1.40;;;36.60;1.00;;;;;;5137493;27;34206;-75
2022/08/25 12:36:07;;;;;;;1.60;1.45;;;36.60;1.00;;;;;;5142059;27;34593;-75
2022/08/25 12:38:41;;;;;;;2.58;1.50;;;36.70;1.00;;;;;;5144246;27;34664;-75
2022/08/25 12:41:12;;;;;;;1.92;1.65;;;36.70;1.00;;;;;;5138744;27;34447;-75
2022/08/25 12:43:48;;;;;;;2.78;1.73;;;36.70;1.00;;;;;;5141006;27;36079;-77
2022/08/25 12:46:37;;;;;;;1.88;1.63;;;36.70;1.00;;;;;;5132647;27;34385;-76
2022/08/25 12:49:34;;;;;;;1.50;1.40;;;36.70;1.00;;;;;;5122688;27;34449;-75
2022/08/25 12:52:11;;;;;;;2.67;1.50;;;36.80;1.00;;;;;;5145260;27;35708;-77
2022/08/25 12:54:47;;;;;;;2.72;1.77;;;36.70;1.00;;;;;;5146751;27;34363;-75
2022/08/25 12:57:29;;;;;;;15.65;2.20;;;36.70;1.00;;;;;;5127312;27;34487;-76
2022/08/25 12:59:58;;;;;;;2.80;1.35;;;36.60;1.00;;;;;;5104378;27;34413;-76
2022/08/25 13:02:59;;;;;;;1.55;1.45;;;36.70;1.00;;;;;;5138758;27;35599;-75
2022/08/25 13:05:43;;;;;;;1.60;1.50;;;36.70;1.00;;;;;;5124269;27;34402;-75
2022/08/25 13:08:45;;;;;;;2.97;1.85;;;36.70;1.00;;;;;;5147007;27;34505;-75
2022/08/25 13:11:20;;;;;;;2.65;1.70;;;36.70;1.00;;;;;;5142068;27;34315;-75
2022/08/25 13:13:59;;;;;;;1.60;1.50;;;36.70;1.00;;;;;;5142619;27;36134;-75
2022/08/25 13:16:27;;;;;;;3.05;1.63;;;36.70;1.00;;;;;;5164314;27;34175;-75
2022/08/25 13:18:57;;;;;;;1.80;1.70;;;36.70;1.00;;;;;;5111802;27;34188;-76
2022/08/25 13:21:30;;;;;;;1.50;1.40;;;36.70;1.00;;;;;;5147661;27;34651;-76
2022/08/25 13:23:59;;;;;;;1.88;1.63;;;36.70;1.00;;;;;;5164502;27;34637;-75
2022/08/25 13:26:29;;;;;;;1.88;1.77;;;36.70;1.00;;;;;;5144058;27;34195;-76
2022/08/25 13:28:59;;;;;;;2.00;1.70;;;36.60;1.00;;;;;;5128305;27;34095;-76
2022/08/25 13:31:28;;;;;;;2.83;1.80;;;36.60;1.00;;;;;;5148213;27;34181;-76